CYPW

Powell River Airport

Powell River, , Canada
METAR CYPW 160300Z 29007KT 20SM FEW025 SCT250 06/02 A3021 RMK SC2CI1 LAST STFD OBS/NEXT161500UTC SLP235
Observed Flight Rules
Dec-16 @ 03:00 UTC (12 hours ago) Visual Flight Rules
Wind Visibility Clouds
290° at 7 knots 20 miles
  • Few at 2,500' AGL
  • Scattered at 25,000' AGL
Temperatures Readings
Current 6°C / 43°F
Dewpoint 2°C / 36°F
Humidity 76%
Altimeter 30.21" Hg
Pressure 1023.5 hPa
Elevation 130
METAR CYPW 160300Z 29007KT 20SM FEW025 SCT250 06/02 A3021 RMK SC2CI1 LAST STFD OBS/NEXT161500UTC SLP235
Observed Flight Rules
Dec-16 @ 03:00 UTC
(12 hours ago)
VFR
Wind Visibility
290° at 7 knots 20 miles
Clouds
  • Few at 2,500' AGL
  • Scattered at 25,000' AGL
Temperature Dewpoint
6°C / 43°F 2°C / 36°F
Humidity Altimeter Pressure
76% 30.21" Hg 1023.5 hPa